sensor_id;sensor_type;location;lat;lon;timestamp;temperature;humidity
51655;DHT22;37732;53.106;7.030;2022-08-19T00:00:24;15.90;99.90
51655;DHT22;37732;53.106;7.030;2022-08-19T00:02:50;15.60;99.90
51655;DHT22;37732;53.106;7.030;2022-08-19T00:05:16;15.50;99.90
51655;DHT22;37732;53.106;7.030;2022-08-19T00:07:43;15.50;99.90
51655;DHT22;37732;53.106;7.030;2022-08-19T00:10:10;15.50;99.90
51655;DHT22;37732;53.106;7.030;2022-08-19T00:12:36;15.60;99.90
51655;DHT22;37732;53.106;7.030;2022-08-19T00:15:05;15.40;99.90
51655;DHT22;37732;53.106;7.030;2022-08-19T00:17:31;15.40;99.90
51655;DHT22;37732;53.106;7.030;2022-08-19T00:19:57;15.40;99.90
51655;DHT22;37732;53.106;7.030;2022-08-19T00:22:22;15.40;99.90
51655;DHT22;37732;53.106;7.030;2022-08-19T00:24:48;15.40;99.90
51655;DHT22;37732;53.106;7.030;2022-08-19T00:27:14;15.40;99.90
51655;DHT22;37732;53.106;7.030;2022-08-19T00:29:40;15.30;99.90
51655;DHT22;37732;53.106;7.030;2022-08-19T00:32:06;15.30;99.90
51655;DHT22;37732;53.106;7.030;2022-08-19T00:34:32;15.30;99.90
51655;DHT22;37732;53.106;7.030;2022-08-19T00:36:58;15.20;99.90
51655;DHT22;37732;53.106;7.030;2022-08-19T00:39:25;15.20;99.90
51655;DHT22;37732;53.106;7.030;2022-08-19T00:41:51;15.20;99.90
51655;DHT22;37732;53.106;7.030;2022-08-19T00:44:21;15.20;99.90
51655;DHT22;37732;53.106;7.030;2022-08-19T00:46:49;15.20;99.90
51655;DHT22;37732;53.106;7.030;2022-08-19T00:49:19;15.10;99.90
51655;DHT22;37732;53.106;7.030;2022-08-19T00:51:48;15.10;99.90
51655;DHT22;37732;53.106;7.030;2022-08-19T00:54:16;15.20;99.90
51655;DHT22;37732;53.106;7.030;2022-08-19T00:56:42;15.00;99.90
51655;DHT22;37732;53.106;7.030;2022-08-19T00:59:09;15.10;99.90
51655;DHT22;37732;53.106;7.030;2022-08-19T01:01:37;15.00;99.90
51655;DHT22;37732;53.106;7.030;2022-08-19T01:04:03;15.00;99.90
51655;DHT22;37732;53.106;7.030;2022-08-19T01:06:30;14.90;99.90
51655;DHT22;37732;53.106;7.030;2022-08-19T01:08:58;14.90;99.90
51655;DHT22;37732;53.106;7.030;2022-08-19T01:11:26;14.80;99.90
51655;DHT22;37732;53.106;7.030;2022-08-19T01:13:52;14.80;99.90
51655;DHT22;37732;53.106;7.030;2022-08-19T01:16:21;15.30;99.90
51655;DHT22;37732;53.106;7.030;2022-08-19T01:18:48;14.90;99.90
51655;DHT22;37732;53.106;7.030;2022-08-19T01:21:40;14.80;99.90
51655;DHT22;37732;53.106;7.030;2022-08-19T01:24:08;14.70;99.90
51655;DHT22;37732;53.106;7.030;2022-08-19T01:26:38;14.70;99.90
51655;DHT22;37732;53.106;7.030;2022-08-19T01:29:07;14.70;99.90
51655;DHT22;37732;53.106;7.030;2022-08-19T01:31:33;14.60;99.90
51655;DHT22;37732;53.106;7.030;2022-08-19T01:34:01;14.50;99.90
51655;DHT22;37732;53.106;7.030;2022-08-19T01:36:34;14.50;99.90
51655;DHT22;37732;53.106;7.030;2022-08-19T01:39:03;14.50;99.90
51655;DHT22;37732;53.106;7.030;2022-08-19T01:41:29;14.50;99.90
51655;DHT22;37732;53.106;7.030;2022-08-19T01:43:54;14.40;99.90
51655;DHT22;37732;53.106;7.030;2022-08-19T01:46:21;14.50;99.90
51655;DHT22;37732;53.106;7.030;2022-08-19T01:48:47;14.50;99.90
51655;DHT22;37732;53.106;7.030;2022-08-19T01:51:13;14.40;99.90
51655;DHT22;37732;53.106;7.030;2022-08-19T01:53:41;14.40;99.90
51655;DHT22;37732;53.106;7.030;2022-08-19T01:56:07;14.70;99.90
51655;DHT22;37732;53.106;7.030;2022-08-19T01:58:42;14.40;99.90
51655;DHT22;37732;53.106;7.030;2022-08-19T02:01:11;14.80;99.90
51655;DHT22;37732;53.106;7.030;2022-08-19T02:03:37;14.30;99.90
51655;DHT22;37732;53.106;7.030;2022-08-19T02:06:03;14.50;99.90
51655;DHT22;37732;53.106;7.030;2022-08-19T02:08:31;14.20;99.90
51655;DHT22;37732;53.106;7.030;2022-08-19T02:10:58;14.20;99.90
51655;DHT22;37732;53.106;7.030;2022-08-19T02:13:24;14.20;99.90
51655;DHT22;37732;53.106;7.030;2022-08-19T02:15:50;14.20;99.90
51655;DHT22;37732;53.106;7.030;2022-08-19T02:18:16;14.10;99.90
51655;DHT22;37732;53.106;7.030;2022-08-19T02:20:42;14.10;99.90
51655;DHT22;37732;53.106;7.030;2022-08-19T02:23:09;14.00;99.90
51655;DHT22;37732;53.106;7.030;2022-08-19T02:25:35;14.00;99.90
51655;DHT22;37732;53.106;7.030;2022-08-19T02:28:01;14.10;99.90
51655;DHT22;37732;53.106;7.030;2022-08-19T02:30:26;13.90;99.90
51655;DHT22;37732;53.106;7.030;2022-08-19T02:33:00;14.00;99.90
51655;DHT22;37732;53.106;7.030;2022-08-19T02:35:48;14.00;99.90
51655;DHT22;37732;53.106;7.030;2022-08-19T02:38:15;14.00;99.90
51655;DHT22;37732;53.106;7.030;2022-08-19T02:41:17;13.80;99.90
51655;DHT22;37732;53.106;7.030;2022-08-19T02:46:25;13.70;99.90
51655;DHT22;37732;53.106;7.030;2022-08-19T02:48:54;13.70;99.90
51655;DHT22;37732;53.106;7.030;2022-08-19T02:51:24;13.90;99.90
51655;DHT22;37732;53.106;7.030;2022-08-19T02:53:50;13.80;99.90
51655;DHT22;37732;53.106;7.030;2022-08-19T02:56:16;14.40;99.90
51655;DHT22;37732;53.106;7.030;2022-08-19T02:58:42;13.60;99.90
51655;DHT22;37732;53.106;7.030;2022-08-19T03:01:09;14.40;99.90
51655;DHT22;37732;53.106;7.030;2022-08-19T03:03:36;13.70;99.90
51655;DHT22;37732;53.106;7.030;2022-08-19T03:06:12;14.10;99.90
51655;DHT22;37732;53.106;7.030;2022-08-19T03:08:40;13.70;99.90
51655;DHT22;37732;53.106;7.030;2022-08-19T03:11:25;13.70;99.90
51655;DHT22;37732;53.106;7.030;2022-08-19T03:13:51;13.70;99.90
51655;DHT22;37732;53.106;7.030;2022-08-19T03:16:25;13.80;99.90
51655;DHT22;37732;53.106;7.030;2022-08-19T03:18:52;14.60;99.90
51655;DHT22;37732;53.106;7.030;2022-08-19T03:21:21;14.40;99.90
51655;DHT22;37732;53.106;7.030;2022-08-19T03:23:47;13.80;99.90
51655;DHT22;37732;53.106;7.030;2022-08-19T03:26:13;14.10;99.90
51655;DHT22;37732;53.106;7.030;2022-08-19T03:28:41;13.70;99.90
51655;DHT22;37732;53.106;7.030;2022-08-19T03:31:11;14.20;99.90
51655;DHT22;37732;53.106;7.030;2022-08-19T03:33:37;13.80;99.90
51655;DHT22;37732;53.106;7.030;2022-08-19T03:36:13;13.80;99.90
51655;DHT22;37732;53.106;7.030;2022-08-19T03:38:45;13.90;99.90
51655;DHT22;37732;53.106;7.030;2022-08-19T03:41:17;13.70;99.90
51655;DHT22;37732;53.106;7.030;2022-08-19T03:43:44;14.10;99.90
51655;DHT22;37732;53.106;7.030;2022-08-19T03:46:23;14.40;99.90
51655;DHT22;37732;53.106;7.030;2022-08-19T03:48:51;13.80;99.90
51655;DHT22;37732;53.106;7.030;2022-08-19T03:51:29;13.70;99.90
51655;DHT22;37732;53.106;7.030;2022-08-19T03:53:58;13.70;99.90
51655;DHT22;37732;53.106;7.030;2022-08-19T03:56:24;13.70;99.90
51655;DHT22;37732;53.106;7.030;2022-08-19T03:58:55;13.70;99.90
51655;DHT22;37732;53.106;7.030;2022-08-19T04:01:23;13.90;99.90
51655;DHT22;37732;53.106;7.030;2022-08-19T04:03:49;14.10;99.90
51655;DHT22;37732;53.106;7.030;2022-08-19T04:06:18;13.70;99.90
51655;DHT22;37732;53.106;7.030;2022-08-19T04:08:45;14.10;99.90
51655;DHT22;37732;53.106;7.030;2022-08-19T04:11:14;13.60;99.90
51655;DHT22;37732;53.106;7.030;2022-08-19T04:13:40;14.80;99.90
51655;DHT22;37732;53.106;7.030;2022-08-19T04:16:06;13.70;99.90
51655;DHT22;37732;53.106;7.030;2022-08-19T04:18:36;14.10;99.90
51655;DHT22;37732;53.106;7.030;2022-08-19T04:21:03;13.80;99.90
51655;DHT22;37732;53.106;7.030;2022-08-19T04:23:29;13.40;99.90
51655;DHT22;37732;53.106;7.030;2022-08-19T04:25:55;13.60;99.90
51655;DHT22;37732;53.106;7.030;2022-08-19T04:28:21;13.60;99.90
51655;DHT22;37732;53.106;7.030;2022-08-19T04:30:50;14.10;99.90
51655;DHT22;37732;53.106;7.030;2022-08-19T04:33:18;13.80;99.90
51655;DHT22;37732;53.106;7.030;2022-08-19T04:35:46;13.30;99.90
51655;DHT22;37732;53.106;7.030;2022-08-19T04:38:14;13.30;99.90
51655;DHT22;37732;53.106;7.030;2022-08-19T04:40:46;13.30;99.90
51655;DHT22;37732;53.106;7.030;2022-08-19T04:43:30;13.30;99.90
51655;DHT22;37732;53.106;7.030;2022-08-19T04:45:57;13.30;99.90
51655;DHT22;37732;53.106;7.030;2022-08-19T04:48:23;13.50;99.90
51655;DHT22;37732;53.106;7.030;2022-08-19T04:50:54;13.40;99.90
51655;DHT22;37732;53.106;7.030;2022-08-19T04:53:33;13.40;99.90
51655;DHT22;37732;53.106;7.030;2022-08-19T04:56:03;13.40;99.90
51655;DHT22;37732;53.106;7.030;2022-08-19T04:58:32;13.40;99.90
51655;DHT22;37732;53.106;7.030;2022-08-19T05:00:59;15.10;99.90
51655;DHT22;37732;53.106;7.030;2022-08-19T05:03:27;13.20;99.90
51655;DHT22;37732;53.106;7.030;2022-08-19T05:06:04;13.40;99.90
51655;DHT22;37732;53.106;7.030;2022-08-19T05:08:34;13.30;99.90
51655;DHT22;37732;53.106;7.030;2022-08-19T05:11:06;13.50;99.90
51655;DHT22;37732;53.106;7.030;2022-08-19T05:13:32;13.60;99.90
51655;DHT22;37732;53.106;7.030;2022-08-19T05:15:59;13.50;99.90
51655;DHT22;37732;53.106;7.030;2022-08-19T05:18:25;13.50;99.90
51655;DHT22;37732;53.106;7.030;2022-08-19T05:21:11;13.90;99.90
51655;DHT22;37732;53.106;7.030;2022-08-19T05:23:55;13.60;99.90
51655;DHT22;37732;53.106;7.030;2022-08-19T05:26:21;13.90;99.90
51655;DHT22;37732;53.106;7.030;2022-08-19T05:28:47;13.50;99.90
51655;DHT22;37732;53.106;7.030;2022-08-19T05:31:13;13.90;99.90
51655;DHT22;37732;53.106;7.030;2022-08-19T05:33:39;13.60;99.90
51655;DHT22;37732;53.106;7.030;2022-08-19T05:36:05;13.70;99.90
51655;DHT22;37732;53.106;7.030;2022-08-19T05:38:33;13.70;99.90
51655;DHT22;37732;53.106;7.030;2022-08-19T05:40:59;13.80;99.90
51655;DHT22;37732;53.106;7.030;2022-08-19T05:43:25;14.10;99.90
51655;DHT22;37732;53.106;7.030;2022-08-19T05:45:50;13.90;99.90
51655;DHT22;37732;53.106;7.030;2022-08-19T05:48:17;15.20;99.90
51655;DHT22;37732;53.106;7.030;2022-08-19T05:50:46;14.40;99.90
51655;DHT22;37732;53.106;7.030;2022-08-19T05:53:12;13.90;99.90
51655;DHT22;37732;53.106;7.030;2022-08-19T05:55:39;13.70;99.90
51655;DHT22;37732;53.106;7.030;2022-08-19T05:58:05;14.00;99.90
51655;DHT22;37732;53.106;7.030;2022-08-19T06:00:33;14.50;99.90
51655;DHT22;37732;53.106;7.030;2022-08-19T06:02:59;14.00;99.90
51655;DHT22;37732;53.106;7.030;2022-08-19T06:05:31;14.20;99.90
51655;DHT22;37732;53.106;7.030;2022-08-19T06:07:57;14.30;99.90
51655;DHT22;37732;53.106;7.030;2022-08-19T06:10:24;14.90;99.90
51655;DHT22;37732;53.106;7.030;2022-08-19T06:12:53;15.00;99.90
51655;DHT22;37732;53.106;7.030;2022-08-19T06:15:20;15.70;99.90
51655;DHT22;37732;53.106;7.030;2022-08-19T06:17:47;15.50;99.90
51655;DHT22;37732;53.106;7.030;2022-08-19T06:20:14;15.40;99.90
51655;DHT22;37732;53.106;7.030;2022-08-19T06:27:34;16.80;99.90
51655;DHT22;37732;53.106;7.030;2022-08-19T06:30:01;16.40;99.90
51655;DHT22;37732;53.106;7.030;2022-08-19T06:32:26;16.50;99.90
51655;DHT22;37732;53.106;7.030;2022-08-19T06:34:52;16.60;99.90
51655;DHT22;37732;53.106;7.030;2022-08-19T06:37:18;16.70;99.90
51655;DHT22;37732;53.106;7.030;2022-08-19T06:39:44;16.80;99.90
51655;DHT22;37732;53.106;7.030;2022-08-19T06:42:12;17.00;99.90
51655;DHT22;37732;53.106;7.030;2022-08-19T06:44:43;17.10;99.90
51655;DHT22;37732;53.106;7.030;2022-08-19T06:47:12;17.30;99.90
51655;DHT22;37732;53.106;7.030;2022-08-19T06:49:38;17.50;99.90
51655;DHT22;37732;53.106;7.030;2022-08-19T06:52:05;18.00;99.90
51655;DHT22;37732;53.106;7.030;2022-08-19T06:54:31;17.90;99.90
51655;DHT22;37732;53.106;7.030;2022-08-19T06:56:58;17.90;99.90
51655;DHT22;37732;53.106;7.030;2022-08-19T06:59:28;18.10;99.90
51655;DHT22;37732;53.106;7.030;2022-08-19T07:01:57;18.40;99.90
51655;DHT22;37732;53.106;7.030;2022-08-19T07:04:30;18.70;99.90
51655;DHT22;37732;53.106;7.030;2022-08-19T07:07:02;18.70;99.90
51655;DHT22;37732;53.106;7.030;2022-08-19T07:09:28;18.90;99.90
51655;DHT22;37732;53.106;7.030;2022-08-19T07:11:55;18.90;99.90
51655;DHT22;37732;53.106;7.030;2022-08-19T07:14:25;19.00;99.90
51655;DHT22;37732;53.106;7.030;2022-08-19T07:16:53;19.00;99.90
51655;DHT22;37732;53.106;7.030;2022-08-19T07:19:21;19.10;99.90
51655;DHT22;37732;53.106;7.030;2022-08-19T07:21:49;19.20;99.90
51655;DHT22;37732;53.106;7.030;2022-08-19T07:24:17;19.30;99.90
51655;DHT22;37732;53.106;7.030;2022-08-19T07:26:43;19.40;99.90
51655;DHT22;37732;53.106;7.030;2022-08-19T07:29:10;19.50;99.90
51655;DHT22;37732;53.106;7.030;2022-08-19T07:31:36;19.50;99.90
51655;DHT22;37732;53.106;7.030;2022-08-19T07:34:08;19.70;99.90
51655;DHT22;37732;53.106;7.030;2022-08-19T07:36:36;19.90;99.90
51655;DHT22;37732;53.106;7.030;2022-08-19T07:39:06;20.10;99.90
51655;DHT22;37732;53.106;7.030;2022-08-19T07:41:34;20.40;99.90
51655;DHT22;37732;53.106;7.030;2022-08-19T07:44:03;20.50;99.90
51655;DHT22;37732;53.106;7.030;2022-08-19T07:46:34;20.60;99.90
51655;DHT22;37732;53.106;7.030;2022-08-19T07:48:59;20.80;99.90
51655;DHT22;37732;53.106;7.030;2022-08-19T07:51:27;20.90;99.90
51655;DHT22;37732;53.106;7.030;2022-08-19T07:53:53;21.20;99.90
51655;DHT22;37732;53.106;7.030;2022-08-19T07:56:19;21.50;99.90
51655;DHT22;37732;53.106;7.030;2022-08-19T07:58:49;21.70;99.90
51655;DHT22;37732;53.106;7.030;2022-08-19T08:01:22;21.90;99.90
51655;DHT22;37732;53.106;7.030;2022-08-19T08:03:49;22.00;99.90
51655;DHT22;37732;53.106;7.030;2022-08-19T08:06:34;22.20;99.90
51655;DHT22;37732;53.106;7.030;2022-08-19T08:09:26;22.20;99.90
51655;DHT22;37732;53.106;7.030;2022-08-19T08:11:55;22.40;99.90
51655;DHT22;37732;53.106;7.030;2022-08-19T08:14:44;22.50;99.90
51655;DHT22;37732;53.106;7.030;2022-08-19T08:17:11;22.60;99.90
51655;DHT22;37732;53.106;7.030;2022-08-19T08:19:38;22.80;99.90
51655;DHT22;37732;53.106;7.030;2022-08-19T08:22:07;23.10;99.90
51655;DHT22;37732;53.106;7.030;2022-08-19T08:24:33;23.30;99.90
51655;DHT22;37732;53.106;7.030;2022-08-19T08:27:01;23.50;99.90
51655;DHT22;37732;53.106;7.030;2022-08-19T08:29:28;23.70;99.90
51655;DHT22;37732;53.106;7.030;2022-08-19T08:31:55;23.90;99.90
51655;DHT22;37732;53.106;7.030;2022-08-19T08:34:21;24.10;99.90
51655;DHT22;37732;53.106;7.030;2022-08-19T08:36:47;24.30;99.90
51655;DHT22;37732;53.106;7.030;2022-08-19T08:39:15;24.40;99.90
51655;DHT22;37732;53.106;7.030;2022-08-19T08:44:31;24.50;99.90
51655;DHT22;37732;53.106;7.030;2022-08-19T08:52:29;24.80;99.90
51655;DHT22;37732;53.106;7.030;2022-08-19T08:54:59;24.90;99.90
51655;DHT22;37732;53.106;7.030;2022-08-19T08:57:36;25.00;99.90
51655;DHT22;37732;53.106;7.030;2022-08-19T09:00:06;24.90;99.90
51655;DHT22;37732;53.106;7.030;2022-08-19T09:02:33;24.90;99.90
51655;DHT22;37732;53.106;7.030;2022-08-19T09:04:58;25.00;99.90
51655;DHT22;37732;53.106;7.030;2022-08-19T09:10:14;25.10;99.90
51655;DHT22;37732;53.106;7.030;2022-08-19T09:13:03;25.10;99.90
51655;DHT22;37732;53.106;7.030;2022-08-19T09:15:39;25.40;99.90
51655;DHT22;37732;53.106;7.030;2022-08-19T09:18:06;25.70;99.90
51655;DHT22;37732;53.106;7.030;2022-08-19T09:20:33;25.70;99.90
51655;DHT22;37732;53.106;7.030;2022-08-19T09:22:59;25.70;99.90
51655;DHT22;37732;53.106;7.030;2022-08-19T09:25:25;25.90;99.90
51655;DHT22;37732;53.106;7.030;2022-08-19T09:27:52;26.00;99.90
51655;DHT22;37732;53.106;7.030;2022-08-19T09:30:27;25.90;99.90
51655;DHT22;37732;53.106;7.030;2022-08-19T09:32:54;25.90;99.90
51655;DHT22;37732;53.106;7.030;2022-08-19T09:35:25;25.90;99.90
51655;DHT22;37732;53.106;7.030;2022-08-19T09:37:51;26.10;99.90
51655;DHT22;37732;53.106;7.030;2022-08-19T09:40:17;26.40;99.90
51655;DHT22;37732;53.106;7.030;2022-08-19T09:42:44;26.50;99.90
51655;DHT22;37732;53.106;7.030;2022-08-19T09:45:13;26.60;99.90
51655;DHT22;37732;53.106;7.030;2022-08-19T09:47:38;26.60;99.90
51655;DHT22;37732;53.106;7.030;2022-08-19T09:50:06;26.70;99.90
51655;DHT22;37732;53.106;7.030;2022-08-19T09:52:32;26.70;99.90
51655;DHT22;37732;53.106;7.030;2022-08-19T09:54:58;26.70;99.90
51655;DHT22;37732;53.106;7.030;2022-08-19T09:57:24;26.80;99.90
51655;DHT22;37732;53.106;7.030;2022-08-19T09:59:50;26.90;99.90
51655;DHT22;37732;53.106;7.030;2022-08-19T10:02:15;26.80;99.90
51655;DHT22;37732;53.106;7.030;2022-08-19T10:04:41;26.90;99.90
51655;DHT22;37732;53.106;7.030;2022-08-19T10:07:25;26.90;99.90
51655;DHT22;37732;53.106;7.030;2022-08-19T10:09:51;26.90;99.90
51655;DHT22;37732;53.106;7.030;2022-08-19T10:12:17;27.10;99.90
51655;DHT22;37732;53.106;7.030;2022-08-19T10:14:42;27.10;99.90
51655;DHT22;37732;53.106;7.030;2022-08-19T10:17:08;27.10;99.90
51655;DHT22;37732;53.106;7.030;2022-08-19T10:19:34;27.20;99.90
51655;DHT22;37732;53.106;7.030;2022-08-19T10:22:05;27.40;99.90
51655;DHT22;37732;53.106;7.030;2022-08-19T10:24:33;27.50;99.20
51655;DHT22;37732;53.106;7.030;2022-08-19T10:27:00;27.50;98.80
51655;DHT22;37732;53.106;7.030;2022-08-19T10:29:29;27.60;98.90
51655;DHT22;37732;53.106;7.030;2022-08-19T10:31:55;27.70;98.80
51655;DHT22;37732;53.106;7.030;2022-08-19T10:34:23;27.80;99.30
51655;DHT22;37732;53.106;7.030;2022-08-19T10:36:49;27.80;98.90
51655;DHT22;37732;53.106;7.030;2022-08-19T10:39:15;28.00;99.40
51655;DHT22;37732;53.106;7.030;2022-08-19T10:41:40;28.20;97.40
51655;DHT22;37732;53.106;7.030;2022-08-19T10:44:10;28.30;98.10
51655;DHT22;37732;53.106;7.030;2022-08-19T10:46:40;28.30;94.70
51655;DHT22;37732;53.106;7.030;2022-08-19T10:49:08;28.20;93.30
51655;DHT22;37732;53.106;7.030;2022-08-19T10:51:35;28.10;96.70
51655;DHT22;37732;53.106;7.030;2022-08-19T10:54:19;28.20;94.80
51655;DHT22;37732;53.106;7.030;2022-08-19T10:56:45;28.30;94.00
51655;DHT22;37732;53.106;7.030;2022-08-19T11:01:45;28.50;93.90
51655;DHT22;37732;53.106;7.030;2022-08-19T11:04:11;28.60;94.80
51655;DHT22;37732;53.106;7.030;2022-08-19T11:06:39;28.70;95.10
51655;DHT22;37732;53.106;7.030;2022-08-19T11:09:08;28.50;95.50
51655;DHT22;37732;53.106;7.030;2022-08-19T11:11:34;28.50;93.70
51655;DHT22;37732;53.106;7.030;2022-08-19T11:14:06;28.30;93.70
51655;DHT22;37732;53.106;7.030;2022-08-19T11:16:32;28.10;94.60
51655;DHT22;37732;53.106;7.030;2022-08-19T11:18:59;28.20;96.20
51655;DHT22;37732;53.106;7.030;2022-08-19T11:21:28;28.30;94.90
51655;DHT22;37732;53.106;7.030;2022-08-19T11:23:58;28.50;94.60
51655;DHT22;37732;53.106;7.030;2022-08-19T11:26:24;28.70;93.70
51655;DHT22;37732;53.106;7.030;2022-08-19T11:28:51;28.60;93.60
51655;DHT22;37732;53.106;7.030;2022-08-19T11:31:21;28.40;93.20
51655;DHT22;37732;53.106;7.030;2022-08-19T11:33:48;28.10;94.60
51655;DHT22;37732;53.106;7.030;2022-08-19T11:36:17;28.00;96.10
51655;DHT22;37732;53.106;7.030;2022-08-19T11:38:45;27.90;95.50
51655;DHT22;37732;53.106;7.030;2022-08-19T11:41:10;28.10;95.50
51655;DHT22;37732;53.106;7.030;2022-08-19T11:43:37;28.10;94.80
51655;DHT22;37732;53.106;7.030;2022-08-19T11:46:07;28.10;96.90
51655;DHT22;37732;53.106;7.030;2022-08-19T11:48:34;28.30;96.30
51655;DHT22;37732;53.106;7.030;2022-08-19T11:51:04;28.60;94.40
51655;DHT22;37732;53.106;7.030;2022-08-19T11:53:32;28.60;93.90
51655;DHT22;37732;53.106;7.030;2022-08-19T11:55:58;28.40;95.10
51655;DHT22;37732;53.106;7.030;2022-08-19T11:58:24;28.30;95.70
51655;DHT22;37732;53.106;7.030;2022-08-19T12:00:51;28.20;96.60
51655;DHT22;37732;53.106;7.030;2022-08-19T12:03:17;28.30;95.60
51655;DHT22;37732;53.106;7.030;2022-08-19T12:05:43;28.60;94.00
51655;DHT22;37732;53.106;7.030;2022-08-19T12:08:09;28.80;92.30
51655;DHT22;37732;53.106;7.030;2022-08-19T12:10:35;29.00;92.90
51655;DHT22;37732;53.106;7.030;2022-08-19T12:13:02;29.40;90.20
51655;DHT22;37732;53.106;7.030;2022-08-19T12:15:28;29.40;92.40
51655;DHT22;37732;53.106;7.030;2022-08-19T12:17:55;29.30;92.40
51655;DHT22;37732;53.106;7.030;2022-08-19T12:20:22;29.10;92.90
51655;DHT22;37732;53.106;7.030;2022-08-19T12:22:49;29.00;91.90
51655;DHT22;37732;53.106;7.030;2022-08-19T12:25:16;29.10;92.10
51655;DHT22;37732;53.106;7.030;2022-08-19T12:27:42;29.20;91.10
51655;DHT22;37732;53.106;7.030;2022-08-19T12:30:10;29.30;90.70
51655;DHT22;37732;53.106;7.030;2022-08-19T12:32:36;29.40;90.40
51655;DHT22;37732;53.106;7.030;2022-08-19T12:35:03;29.30;91.00
51655;DHT22;37732;53.106;7.030;2022-08-19T12:37:29;29.10;92.50
51655;DHT22;37732;53.106;7.030;2022-08-19T12:39:55;28.80;92.60
51655;DHT22;37732;53.106;7.030;2022-08-19T12:42:21;28.60;94.00
51655;DHT22;37732;53.106;7.030;2022-08-19T12:44:47;28.30;94.10
51655;DHT22;37732;53.106;7.030;2022-08-19T12:47:13;28.20;94.50
51655;DHT22;37732;53.106;7.030;2022-08-19T12:49:40;28.00;95.30
51655;DHT22;37732;53.106;7.030;2022-08-19T12:52:08;27.90;96.40
51655;DHT22;37732;53.106;7.030;2022-08-19T12:54:37;27.90;95.80
51655;DHT22;37732;53.106;7.030;2022-08-19T12:57:07;28.10;95.20
51655;DHT22;37732;53.106;7.030;2022-08-19T12:59:34;28.30;96.70
51655;DHT22;37732;53.106;7.030;2022-08-19T13:02:02;28.40;95.70
51655;DHT22;37732;53.106;7.030;2022-08-19T13:04:27;28.40;94.50
51655;DHT22;37732;53.106;7.030;2022-08-19T13:06:53;28.40;94.60
51655;DHT22;37732;53.106;7.030;2022-08-19T13:09:19;28.60;94.70
51655;DHT22;37732;53.106;7.030;2022-08-19T13:11:44;28.80;94.30
51655;DHT22;37732;53.106;7.030;2022-08-19T13:14:10;29.00;94.80
51655;DHT22;37732;53.106;7.030;2022-08-19T13:16:36;29.20;91.70
51655;DHT22;37732;53.106;7.030;2022-08-19T13:19:04;29.30;91.40
51655;DHT22;37732;53.106;7.030;2022-08-19T13:21:30;29.30;90.20
51655;DHT22;37732;53.106;7.030;2022-08-19T13:23:56;29.10;91.60
51655;DHT22;37732;53.106;7.030;2022-08-19T13:26:22;28.80;92.70
51655;DHT22;37732;53.106;7.030;2022-08-19T13:28:48;28.50;93.20
51655;DHT22;37732;53.106;7.030;2022-08-19T13:31:35;28.30;94.90
51655;DHT22;37732;53.106;7.030;2022-08-19T13:34:27;28.10;94.90
51655;DHT22;37732;53.106;7.030;2022-08-19T13:36:53;27.90;95.00
51655;DHT22;37732;53.106;7.030;2022-08-19T13:39:19;27.80;96.00
51655;DHT22;37732;53.106;7.030;2022-08-19T13:41:46;27.70;96.40
51655;DHT22;37732;53.106;7.030;2022-08-19T13:44:17;27.60;96.40
51655;DHT22;37732;53.106;7.030;2022-08-19T13:46:47;27.60;97.50
51655;DHT22;37732;53.106;7.030;2022-08-19T13:49:15;27.60;98.50
51655;DHT22;37732;53.106;7.030;2022-08-19T13:51:44;27.70;98.80
51655;DHT22;37732;53.106;7.030;2022-08-19T13:54:11;27.80;98.40
51655;DHT22;37732;53.106;7.030;2022-08-19T13:56:41;27.80;97.80
51655;DHT22;37732;53.106;7.030;2022-08-19T13:59:07;27.80;97.10
51655;DHT22;37732;53.106;7.030;2022-08-19T14:01:33;28.00;97.10
51655;DHT22;37732;53.106;7.030;2022-08-19T14:04:00;28.10;95.90
51655;DHT22;37732;53.106;7.030;2022-08-19T14:06:26;28.20;95.70
51655;DHT22;37732;53.106;7.030;2022-08-19T14:08:52;28.40;96.40
51655;DHT22;37732;53.106;7.030;2022-08-19T14:11:18;28.60;95.10
51655;DHT22;37732;53.106;7.030;2022-08-19T14:13:44;28.60;94.90
51655;DHT22;37732;53.106;7.030;2022-08-19T14:16:11;28.60;95.40
51655;DHT22;37732;53.106;7.030;2022-08-19T14:18:37;28.50;94.80
51655;DHT22;37732;53.106;7.030;2022-08-19T14:21:04;28.30;94.10
51655;DHT22;37732;53.106;7.030;2022-08-19T14:23:31;28.20;94.30
51655;DHT22;37732;53.106;7.030;2022-08-19T14:26:08;28.00;95.20
51655;DHT22;37732;53.106;7.030;2022-08-19T14:28:34;27.90;96.40
51655;DHT22;37732;53.106;7.030;2022-08-19T14:31:00;28.00;96.90
51655;DHT22;37732;53.106;7.030;2022-08-19T14:33:25;28.20;97.10
51655;DHT22;37732;53.106;7.030;2022-08-19T14:35:51;28.30;95.60
51655;DHT22;37732;53.106;7.030;2022-08-19T14:38:18;28.30;94.80
51655;DHT22;37732;53.106;7.030;2022-08-19T14:40:44;28.10;93.50
51655;DHT22;37732;53.106;7.030;2022-08-19T14:43:11;27.90;94.70
51655;DHT22;37732;53.106;7.030;2022-08-19T14:45:37;27.80;94.90
51655;DHT22;37732;53.106;7.030;2022-08-19T14:48:05;27.50;97.20
51655;DHT22;37732;53.106;7.030;2022-08-19T14:50:31;27.20;99.10
51655;DHT22;37732;53.106;7.030;2022-08-19T14:53:05;27.00;99.90
51655;DHT22;37732;53.106;7.030;2022-08-19T14:58:44;26.60;99.90
51655;DHT22;37732;53.106;7.030;2022-08-19T15:01:11;26.40;99.90
51655;DHT22;37732;53.106;7.030;2022-08-19T15:03:37;26.40;99.90
51655;DHT22;37732;53.106;7.030;2022-08-19T15:06:04;26.30;99.90
51655;DHT22;37732;53.106;7.030;2022-08-19T15:08:32;26.30;99.90
51655;DHT22;37732;53.106;7.030;2022-08-19T15:10:59;26.20;99.90
51655;DHT22;37732;53.106;7.030;2022-08-19T15:13:26;26.10;99.90
51655;DHT22;37732;53.106;7.030;2022-08-19T15:15:52;26.20;99.90
51655;DHT22;37732;53.106;7.030;2022-08-19T15:18:19;26.30;99.90
51655;DHT22;37732;53.106;7.030;2022-08-19T15:20:46;26.30;99.90
51655;DHT22;37732;53.106;7.030;2022-08-19T15:23:14;26.20;99.90
51655;DHT22;37732;53.106;7.030;2022-08-19T15:25:40;26.20;99.90
51655;DHT22;37732;53.106;7.030;2022-08-19T15:28:07;26.00;99.90
51655;DHT22;37732;53.106;7.030;2022-08-19T15:30:33;26.00;99.90
51655;DHT22;37732;53.106;7.030;2022-08-19T15:32:59;25.80;99.90
51655;DHT22;37732;53.106;7.030;2022-08-19T15:35:25;25.70;99.90
51655;DHT22;37732;53.106;7.030;2022-08-19T15:37:52;25.70;99.90
51655;DHT22;37732;53.106;7.030;2022-08-19T15:40:19;25.60;99.90
51655;DHT22;37732;53.106;7.030;2022-08-19T15:42:46;25.60;99.90
51655;DHT22;37732;53.106;7.030;2022-08-19T15:45:13;25.50;99.90
51655;DHT22;37732;53.106;7.030;2022-08-19T15:47:39;25.50;99.90
51655;DHT22;37732;53.106;7.030;2022-08-19T15:50:12;25.40;99.90
51655;DHT22;37732;53.106;7.030;2022-08-19T15:52:50;25.40;99.90
51655;DHT22;37732;53.106;7.030;2022-08-19T15:55:18;25.30;99.90
51655;DHT22;37732;53.106;7.030;2022-08-19T15:57:44;25.20;99.90
51655;DHT22;37732;53.106;7.030;2022-08-19T16:00:28;25.20;99.90